Time;durP1;ratioP1;P1;durP2;ratioP2;P2;SDS_P1;SDS_P2;PMS_P1;PMS_P2;Temp;Humidity;BMP_temperature;BMP_pressure;BME280_temperature;BME280_humidity;BME280_pressure;Samples;Min_cycle;Max_cycle;Signal;HPM_P1;HPM_P2
2021/03/02 00:02:01;;;;;;;6.07;4.07;;;25.10;8.80;;;;;;4366889;32;20087;-59
2021/03/02 00:04:28;;;;;;;6.82;4.45;;;25.10;8.90;;;;;;4354604;32;20082;-59
2021/03/02 00:06:54;;;;;;;5.97;4.25;;;25.10;8.80;;;;;;4367498;32;20070;-59
2021/03/02 00:09:21;;;;;;;6.47;3.97;;;25.10;8.70;;;;;;4354988;32;20074;-60
2021/03/02 00:11:48;;;;;;;5.55;3.95;;;25.10;8.80;;;;;;4342536;32;20161;-60
2021/03/02 00:14:15;;;;;;;5.97;3.83;;;25.00;8.80;;;;;;4367332;32;20058;-63
2021/03/02 00:16:55;;;;;;;7.57;4.12;;;25.10;8.80;;;;;;4355467;32;20070;-59
2021/03/02 00:19:27;;;;;;;7.70;3.80;;;25.10;8.70;;;;;;4379860;32;20082;-58
2021/03/02 00:22:01;;;;;;;6.07;3.92;;;25.10;8.70;;;;;;4385771;32;20144;-60
2021/03/02 00:24:32;;;;;;;6.12;3.95;;;25.10;8.80;;;;;;4370536;32;20518;-58
2021/03/02 00:26:58;;;;;;;5.57;3.97;;;25.10;8.80;;;;;;4379614;32;20590;-59
2021/03/02 00:29:25;;;;;;;7.32;4.05;;;25.10;8.80;;;;;;4378919;32;20070;-60
2021/03/02 00:31:51;;;;;;;5.35;3.97;;;25.10;8.70;;;;;;4354458;32;20090;-59
2021/03/02 00:34:17;;;;;;;6.15;3.83;;;25.20;8.70;;;;;;4378777;32;20085;-59
2021/03/02 00:36:43;;;;;;;5.20;3.50;;;25.10;8.70;;;;;;4378993;32;20463;-60
2021/03/02 00:39:09;;;;;;;5.10;3.53;;;25.20;8.60;;;;;;4379044;32;20159;-60
2021/03/02 00:41:36;;;;;;;6.18;4.15;;;25.10;8.70;;;;;;4378964;32;20069;-59
2021/03/02 00:44:02;;;;;;;5.18;3.67;;;25.00;8.70;;;;;;4392705;32;20062;-59
2021/03/02 00:46:28;;;;;;;7.50;3.85;;;25.00;8.70;;;;;;4365994;32;20115;-59
2021/03/02 00:48:54;;;;;;;5.03;3.55;;;25.10;8.70;;;;;;4391204;32;20094;-58
2021/03/02 00:51:21;;;;;;;6.85;4.12;;;25.00;8.70;;;;;;4366404;32;20441;-58
2021/03/02 00:53:47;;;;;;;5.18;3.53;;;25.10;8.70;;;;;;4378719;32;20070;-58
2021/03/02 00:56:13;;;;;;;6.20;4.43;;;25.00;8.60;;;;;;4378731;32;20157;-60
2021/03/02 00:58:41;;;;;;;5.32;3.78;;;25.00;8.70;;;;;;4378564;32;20082;-60
2021/03/02 01:01:07;;;;;;;6.93;4.03;;;25.00;8.60;;;;;;4366613;32;20081;-59
2021/03/02 01:03:33;;;;;;;5.47;3.55;;;25.00;8.70;;;;;;4389386;32;20175;-60
2021/03/02 01:05:59;;;;;;;6.40;4.12;;;25.00;8.70;;;;;;4393830;32;20164;-59
2021/03/02 01:08:26;;;;;;;6.07;3.67;;;25.00;8.60;;;;;;4381456;32;20076;-60
2021/03/02 01:10:52;;;;;;;5.50;4.00;;;25.00;8.60;;;;;;4405983;32;20571;-59
2021/03/02 01:13:18;;;;;;;5.72;3.97;;;24.90;8.60;;;;;;4393513;32;20507;-58
2021/03/02 01:15:44;;;;;;;5.70;3.83;;;25.00;8.60;;;;;;4406255;32;20076;-59
2021/03/02 01:18:10;;;;;;;6.15;4.07;;;25.00;8.60;;;;;;4393374;32;20080;-59
2021/03/02 01:20:37;;;;;;;5.10;3.85;;;25.10;8.50;;;;;;4368869;32;20070;-58
2021/03/02 01:23:03;;;;;;;5.25;3.80;;;25.20;8.60;;;;;;4379737;32;20082;-59
2021/03/02 01:25:30;;;;;;;5.10;3.75;;;25.00;8.60;;;;;;4378320;32;20069;-60
2021/03/02 01:27:56;;;;;;;5.62;3.97;;;25.00;8.60;;;;;;4375982;32;20069;-58
2021/03/02 01:30:23;;;;;;;6.03;3.70;;;25.00;8.50;;;;;;4394144;32;20092;-60
2021/03/02 01:32:49;;;;;;;5.68;3.78;;;25.10;8.50;;;;;;4371477;32;20062;-59
2021/03/02 01:35:16;;;;;;;6.20;3.92;;;25.20;8.50;;;;;;4393545;32;20145;-60
2021/03/02 01:37:43;;;;;;;5.47;3.75;;;25.10;8.40;;;;;;4380793;32;20520;-59
2021/03/02 01:40:14;;;;;;;5.30;3.70;;;25.10;8.40;;;;;;4380533;32;20070;-59
2021/03/02 01:42:41;;;;;;;6.57;4.43;;;25.10;8.40;;;;;;4393435;32;20093;-58
2021/03/02 01:45:09;;;;;;;4.87;3.45;;;25.00;8.40;;;;;;4368576;32;20062;-59
2021/03/02 01:47:36;;;;;;;5.10;3.80;;;25.10;8.40;;;;;;4363623;32;20078;-59
2021/03/02 01:50:07;;;;;;;5.75;4.10;;;25.10;8.40;;;;;;4369418;32;20062;-58
2021/03/02 01:52:34;;;;;;;5.85;4.10;;;25.00;8.40;;;;;;4378146;32;20078;-58
2021/03/02 01:55:00;;;;;;;6.43;3.58;;;25.00;8.40;;;;;;4384140;32;20061;-59
2021/03/02 01:57:27;;;;;;;7.65;4.12;;;25.00;9.50;;;;;;4367418;32;20077;-58
2021/03/02 01:59:53;;;;;;;6.07;3.85;;;25.00;8.50;;;;;;4381068;32;20512;-59
2021/03/02 02:02:38;;;;;;;6.87;3.97;;;25.00;8.40;;;;;;4380195;32;20072;-59
2021/03/02 02:05:06;;;;;;;5.68;3.97;;;25.00;8.40;;;;;;4369461;32;20077;-59
2021/03/02 02:07:43;;;;;;;5.80;3.67;;;25.00;8.40;;;;;;4366366;32;20086;-60
2021/03/02 02:10:17;;;;;;;6.35;4.20;;;25.00;8.40;;;;;;4353922;32;20107;-59
2021/03/02 02:12:50;;;;;;;6.68;4.55;;;24.90;8.40;;;;;;4365819;32;20603;-60
2021/03/02 02:15:26;;;;;;;5.18;3.85;;;25.00;8.40;;;;;;4366165;32;20413;-59
2021/03/02 02:18:11;;;;;;;6.28;4.10;;;25.00;8.30;;;;;;4353280;32;20066;-58
2021/03/02 02:21:07;;;;;;;5.03;3.90;;;25.10;8.30;;;;;;4367185;32;20093;-58
2021/03/02 02:24:16;;;;;;;5.80;3.90;;;25.00;8.30;;;;;;4380222;32;20100;-59
2021/03/02 02:26:56;;;;;;;5.20;3.60;;;25.00;8.30;;;;;;4293221;33;20131;-59
2021/03/02 02:29:27;;;;;;;6.00;4.00;;;25.00;8.30;;;;;;4317135;33;20529;-58
2021/03/02 02:31:53;;;;;;;5.90;4.12;;;25.00;8.40;;;;;;4355033;32;20093;-59
2021/03/02 02:34:20;;;;;;;5.72;3.97;;;25.00;8.30;;;;;;4364364;32;20081;-58
2021/03/02 02:36:49;;;;;;;5.53;3.67;;;25.00;8.30;;;;;;4365542;32;20152;-58
2021/03/02 02:39:17;;;;;;;6.10;3.60;;;25.10;8.30;;;;;;4372676;32;20058;-58
2021/03/02 02:41:47;;;;;;;6.05;4.15;;;25.00;8.20;;;;;;4370770;32;20158;-58
2021/03/02 02:44:14;;;;;;;5.20;3.87;;;25.10;8.20;;;;;;4377516;32;20604;-59
2021/03/02 02:46:41;;;;;;;6.10;4.03;;;25.00;8.30;;;;;;4365229;32;20166;-58
2021/03/02 02:49:09;;;;;;;6.10;4.03;;;24.90;8.30;;;;;;4390681;32;20155;-60
2021/03/02 02:51:36;;;;;;;5.20;3.62;;;25.00;8.20;;;;;;4380644;32;20145;-60
2021/03/02 02:54:03;;;;;;;5.50;4.00;;;25.00;8.30;;;;;;4380613;32;20077;-59
2021/03/02 02:56:29;;;;;;;6.03;4.18;;;25.00;8.20;;;;;;4392330;32;20058;-58
2021/03/02 02:59:16;;;;;;;4.57;3.65;;;25.00;8.40;;;;;;4393178;32;20077;-59
2021/03/02 03:01:45;;;;;;;5.70;3.60;;;24.90;8.20;;;;;;4380164;32;20078;-59
2021/03/02 03:04:14;;;;;;;5.82;3.72;;;24.90;8.20;;;;;;4365292;32;20163;-60
2021/03/02 03:06:42;;;;;;;5.10;3.53;;;24.90;8.20;;;;;;4365574;32;20073;-59
2021/03/02 03:09:08;;;;;;;5.93;3.55;;;24.90;8.30;;;;;;4390178;32;20080;-59
2021/03/02 03:11:45;;;;;;;5.12;3.55;;;25.00;8.20;;;;;;4352841;32;20085;-58
2021/03/02 03:14:13;;;;;;;6.15;4.00;;;25.00;8.20;;;;;;4365998;32;20055;-58
2021/03/02 03:16:42;;;;;;;5.30;3.35;;;25.00;8.10;;;;;;4365490;32;20085;-59
2021/03/02 03:19:08;;;;;;;5.10;3.75;;;25.00;8.20;;;;;;4391116;32;20066;-58
2021/03/02 03:21:35;;;;;;;4.97;3.47;;;25.00;8.20;;;;;;4367757;32;20070;-59
2021/03/02 03:24:01;;;;;;;6.07;3.65;;;25.00;8.30;;;;;;4367357;32;20154;-59
2021/03/02 03:26:31;;;;;;;6.15;4.00;;;25.00;8.30;;;;;;4379886;32;20069;-58
2021/03/02 03:28:57;;;;;;;5.00;3.92;;;24.90;9.20;;;;;;4380105;32;20169;-59
2021/03/02 03:31:23;;;;;;;5.95;3.70;;;25.00;8.20;;;;;;4380139;32;20141;-60
2021/03/02 03:33:49;;;;;;;6.05;3.92;;;25.00;8.20;;;;;;4392062;32;20081;-60
2021/03/02 03:36:15;;;;;;;4.43;3.42;;;25.00;8.20;;;;;;4377616;32;20072;-58
2021/03/02 03:38:42;;;;;;;5.28;3.60;;;24.90;8.10;;;;;;4377188;32;20066;-58
2021/03/02 03:41:08;;;;;;;5.20;3.75;;;24.90;8.20;;;;;;4376884;32;20101;-61
2021/03/02 03:43:34;;;;;;;5.03;3.58;;;25.00;9.10;;;;;;4389885;32;20507;-59
2021/03/02 03:46:01;;;;;;;5.87;3.67;;;25.00;8.00;;;;;;4377812;32;20162;-59
2021/03/02 03:48:27;;;;;;;5.75;3.60;;;24.90;8.10;;;;;;4388947;32;20076;-58
2021/03/02 03:50:53;;;;;;;5.00;3.60;;;24.90;8.20;;;;;;4389727;32;20073;-59
2021/03/02 03:53:20;;;;;;;5.87;3.80;;;24.80;8.20;;;;;;4390275;32;20069;-59
2021/03/02 03:55:49;;;;;;;5.37;3.92;;;24.90;8.20;;;;;;4380811;32;20062;-60
2021/03/02 03:58:22;;;;;;;6.12;4.20;;;24.90;8.20;;;;;;4395165;32;20081;-59
2021/03/02 04:00:52;;;;;;;5.45;3.42;;;24.90;8.20;;;;;;4380177;32;20068;-59
2021/03/02 04:03:23;;;;;;;6.65;3.85;;;25.00;8.10;;;;;;4367247;32;20070;-59
2021/03/02 04:05:50;;;;;;;4.62;3.53;;;24.90;8.10;;;;;;4367268;32;20133;-59
2021/03/02 04:08:16;;;;;;;5.43;3.25;;;24.90;8.10;;;;;;4367195;32;20061;-59
2021/03/02 04:10:43;;;;;;;5.07;3.87;;;24.90;8.10;;;;;;4354780;32;20109;-60
2021/03/02 04:13:11;;;;;;;5.37;3.72;;;24.80;8.20;;;;;;4367255;32;20524;-60
2021/03/02 04:15:37;;;;;;;6.00;3.25;;;24.80;8.20;;;;;;4367657;32;20062;-60
2021/03/02 04:18:08;;;;;;;5.25;3.55;;;24.90;8.10;;;;;;4386674;32;20533;-59
2021/03/02 04:20:35;;;;;;;5.82;3.80;;;24.90;8.10;;;;;;4382654;32;20073;-59
2021/03/02 04:23:01;;;;;;;5.95;3.80;;;24.80;8.20;;;;;;4394059;32;20101;-58
2021/03/02 04:25:27;;;;;;;4.87;3.55;;;24.90;8.10;;;;;;4382183;32;20540;-58
2021/03/02 04:27:53;;;;;;;6.80;3.80;;;24.80;8.10;;;;;;4408690;32;20147;-59
2021/03/02 04:30:20;;;;;;;5.35;3.47;;;24.80;8.10;;;;;;4394439;32;20081;-60
2021/03/02 04:32:46;;;;;;;5.32;3.55;;;24.80;8.20;;;;;;4375778;32;20070;-59
2021/03/02 04:35:13;;;;;;;5.47;3.53;;;24.80;8.10;;;;;;4378908;32;20164;-59
2021/03/02 04:37:40;;;;;;;5.57;3.55;;;24.80;8.10;;;;;;4379599;32;20104;-57
2021/03/02 04:40:08;;;;;;;5.55;3.28;;;24.70;8.10;;;;;;4379490;32;20077;-59
2021/03/02 04:42:34;;;;;;;4.97;3.15;;;24.70;8.10;;;;;;4379414;32;20409;-59
2021/03/02 04:45:01;;;;;;;5.30;3.80;;;24.80;8.30;;;;;;4366467;32;20073;-60
2021/03/02 04:47:27;;;;;;;5.50;3.70;;;24.60;8.10;;;;;;4394831;32;20503;-60
2021/03/02 04:49:53;;;;;;;5.70;3.97;;;24.80;8.20;;;;;;4381855;32;20166;-59
2021/03/02 04:52:20;;;;;;;5.72;4.03;;;24.80;8.10;;;;;;4357094;32;20078;-59
2021/03/02 04:54:46;;;;;;;5.65;4.25;;;24.90;8.10;;;;;;4367564;32;20520;-59
2021/03/02 04:57:12;;;;;;;8.10;3.67;;;24.80;8.10;;;;;;4354672;32;20142;-58
2021/03/02 04:59:38;;;;;;;5.90;3.95;;;24.80;8.10;;;;;;4381618;32;20575;-58
2021/03/02 05:02:05;;;;;;;6.40;3.40;;;24.80;8.10;;;;;;4395120;32;20076;-59
2021/03/02 05:04:31;;;;;;;5.95;3.87;;;24.70;8.10;;;;;;4369803;32;20443;-58
2021/03/02 05:06:57;;;;;;;6.90;4.18;;;24.80;8.10;;;;;;4381879;32;20066;-58
2021/03/02 05:09:24;;;;;;;7.53;4.05;;;24.70;8.10;;;;;;4406968;32;20150;-58
2021/03/02 05:11:52;;;;;;;5.85;3.62;;;24.70;8.10;;;;;;4394725;32;20065;-59
2021/03/02 05:14:18;;;;;;;6.20;3.95;;;24.80;8.20;;;;;;4384475;32;20069;-59
2021/03/02 05:16:45;;;;;;;6.47;3.45;;;24.80;8.10;;;;;;4381334;32;20093;-59
2021/03/02 05:19:11;;;;;;;6.28;4.03;;;24.90;8.00;;;;;;4354916;32;20143;-59
2021/03/02 05:21:37;;;;;;;8.38;3.97;;;24.80;8.00;;;;;;4389971;32;20077;-58
2021/03/02 05:24:04;;;;;;;6.80;3.90;;;24.80;8.00;;;;;;4392901;32;20066;-59
2021/03/02 05:26:30;;;;;;;6.22;3.58;;;24.80;8.10;;;;;;4374988;32;20077;-58
2021/03/02 05:28:57;;;;;;;5.75;4.00;;;24.70;8.00;;;;;;4372930;32;20069;-58
2021/03/02 05:31:24;;;;;;;7.35;4.32;;;24.80;8.20;;;;;;4382265;32;20072;-59
2021/03/02 05:33:50;;;;;;;5.40;4.22;;;24.80;8.00;;;;;;4369138;32;20114;-59
2021/03/02 05:36:16;;;;;;;5.15;3.83;;;24.80;8.00;;;;;;4379160;32;20084;-63
2021/03/02 05:38:43;;;;;;;5.97;3.58;;;24.80;8.00;;;;;;4366819;32;20142;-59
2021/03/02 05:41:10;;;;;;;5.43;3.60;;;24.80;8.10;;;;;;4354931;32;20070;-58
2021/03/02 05:43:43;;;;;;;6.68;3.78;;;24.70;8.00;;;;;;4355880;32;20160;-58
2021/03/02 05:46:10;;;;;;;5.95;3.90;;;24.70;8.00;;;;;;4366025;32;20642;-58
2021/03/02 05:48:41;;;;;;;6.10;3.85;;;24.90;8.00;;;;;;4367151;32;20158;-58
2021/03/02 05:51:08;;;;;;;5.78;4.25;;;24.80;8.00;;;;;;4359662;32;20544;-58
2021/03/02 05:53:38;;;;;;;6.37;3.97;;;24.80;8.00;;;;;;4394094;32;20105;-59
2021/03/02 05:56:08;;;;;;;5.65;3.42;;;24.80;8.20;;;;;;4373843;32;20081;-59
2021/03/02 05:58:35;;;;;;;5.15;3.28;;;24.80;8.20;;;;;;4360544;32;20077;-59
2021/03/02 06:01:03;;;;;;;7.22;3.90;;;24.90;8.50;;;;;;4366037;32;20090;-61
2021/03/02 06:03:29;;;;;;;5.87;3.72;;;24.70;8.70;;;;;;4359103;32;20109;-60
2021/03/02 06:05:55;;;;;;;5.70;4.35;;;24.90;8.60;;;;;;4386567;32;20070;-61
2021/03/02 06:08:22;;;;;;;5.15;3.58;;;24.90;8.90;;;;;;4377905;32;20073;-58
2021/03/02 06:10:48;;;;;;;4.80;3.50;;;24.90;8.90;;;;;;4378905;32;20078;-61
2021/03/02 06:13:20;;;;;;;7.28;4.05;;;24.90;9.00;;;;;;4382152;32;20178;-59
2021/03/02 06:15:57;;;;;;;5.90;4.18;;;24.90;8.90;;;;;;4379276;32;20568;-59
2021/03/02 06:18:24;;;;;;;4.80;3.15;;;24.90;8.90;;;;;;4363474;32;20069;-59
2021/03/02 06:20:51;;;;;;;6.35;4.05;;;24.90;9.10;;;;;;4370878;32;20085;-59
2021/03/02 06:23:25;;;;;;;7.12;3.75;;;25.00;9.00;;;;;;4367614;32;20064;-60
2021/03/02 06:25:53;;;;;;;6.50;4.00;;;25.00;9.00;;;;;;4391282;32;20096;-58
2021/03/02 06:28:44;;;;;;;6.35;3.70;;;25.00;9.00;;;;;;4361300;32;20484;-59
2021/03/02 06:31:38;;;;;;;6.03;4.05;;;25.10;9.10;;;;;;4382019;32;20080;-59
2021/03/02 06:34:17;;;;;;;5.40;3.90;;;25.10;9.10;;;;;;4369094;32;20212;-60
2021/03/02 06:36:53;;;;;;;5.97;3.62;;;25.20;9.00;;;;;;4393440;32;20160;-61
2021/03/02 06:39:40;;;;;;;6.10;3.80;;;25.10;9.10;;;;;;4393441;32;20213;-61
2021/03/02 06:42:17;;;;;;;4.78;3.58;;;25.10;9.10;;;;;;4366877;32;20512;-59
2021/03/02 06:44:49;;;;;;;6.68;4.10;;;25.10;9.10;;;;;;4389377;32;20073;-60
2021/03/02 06:47:30;;;;;;;5.68;3.87;;;25.10;9.10;;;;;;4400804;32;20138;-59
2021/03/02 06:49:57;;;;;;;5.15;3.70;;;25.20;9.10;;;;;;4396340;32;20153;-59
2021/03/02 06:52:23;;;;;;;5.30;3.70;;;25.20;9.20;;;;;;4368255;32;20499;-58
2021/03/02 06:54:50;;;;;;;6.93;4.15;;;25.10;9.30;;;;;;4387270;32;20066;-59
2021/03/02 06:57:23;;;;;;;6.03;4.32;;;25.10;9.30;;;;;;4378370;32;20081;-58
2021/03/02 06:59:57;;;;;;;6.85;4.65;;;25.10;9.40;;;;;;4383427;32;20553;-59
2021/03/02 07:02:45;;;;;;;6.10;4.03;;;25.10;9.40;;;;;;4364319;32;20093;-59
2021/03/02 07:05:14;;;;;;;6.85;3.75;;;25.20;9.40;;;;;;4376547;32;20172;-59
2021/03/02 07:07:49;;;;;;;6.28;4.20;;;25.20;9.50;;;;;;4352737;32;20112;-59
2021/03/02 07:10:15;;;;;;;5.32;3.85;;;25.30;9.60;;;;;;4382090;32;20086;-59
2021/03/02 07:12:43;;;;;;;5.78;4.18;;;25.20;9.80;;;;;;4374574;32;20073;-63
2021/03/02 07:15:17;;;;;;;5.82;3.78;;;25.30;9.80;;;;;;4391899;32;20066;-59
2021/03/02 07:17:45;;;;;;;5.45;3.78;;;25.30;9.90;;;;;;4375296;32;20073;-59
2021/03/02 07:20:14;;;;;;;5.80;3.90;;;25.30;9.90;;;;;;4390214;32;20593;-59
2021/03/02 07:22:40;;;;;;;6.62;4.12;;;25.30;10.00;;;;;;4377509;32;20093;-59
2021/03/02 07:25:11;;;;;;;6.25;4.40;;;25.30;10.10;;;;;;4387865;32;20158;-60
2021/03/02 07:27:41;;;;;;;4.95;3.50;;;25.30;10.00;;;;;;4378208;32;20085;-59
2021/03/02 07:30:12;;;;;;;5.47;3.80;;;25.40;10.10;;;;;;4380752;32;20157;-60
2021/03/02 07:32:41;;;;;;;5.53;4.20;;;25.40;10.20;;;;;;4378436;32;20097;-59
2021/03/02 07:35:09;;;;;;;6.25;4.32;;;25.40;10.10;;;;;;4381051;32;20078;-62
2021/03/02 07:37:35;;;;;;;5.60;4.32;;;25.40;10.20;;;;;;4382922;32;20061;-60
2021/03/02 07:40:14;;;;;;;5.50;3.87;;;25.40;10.30;;;;;;4392946;32;20137;-62
2021/03/02 07:42:41;;;;;;;5.87;3.97;;;25.40;10.20;;;;;;4361710;32;20523;-61
2021/03/02 07:45:15;;;;;;;5.15;3.55;;;25.50;10.30;;;;;;4363446;32;20072;-58
2021/03/02 07:48:00;;;;;;;5.50;4.20;;;25.40;10.30;;;;;;4368577;32;20073;-60
2021/03/02 07:50:31;;;;;;;5.72;4.45;;;25.40;10.40;;;;;;4380101;32;20148;-59
2021/03/02 07:53:16;;;;;;;5.57;3.83;;;25.30;10.40;;;;;;4364153;32;20496;-60
2021/03/02 07:55:46;;;;;;;5.85;4.20;;;25.50;10.40;;;;;;4392230;32;20081;-58
2021/03/02 07:58:20;;;;;;;6.55;4.03;;;25.50;10.50;;;;;;4379896;32;20153;-58
2021/03/02 08:00:48;;;;;;;6.53;4.15;;;25.30;10.40;;;;;;4369588;32;20506;-57
2021/03/02 08:03:25;;;;;;;5.45;3.67;;;25.20;10.40;;;;;;4374250;32;20145;-56
2021/03/02 08:06:01;;;;;;;6.07;4.10;;;25.20;10.40;;;;;;4388308;32;20177;-63
2021/03/02 08:08:28;;;;;;;5.40;3.72;;;25.20;10.30;;;;;;4371276;32;20492;-57
2021/03/02 08:11:00;;;;;;;6.47;4.53;;;25.20;10.30;;;;;;4394926;32;20069;-58
2021/03/02 08:13:40;;;;;;;6.25;4.18;;;25.20;10.20;;;;;;4383053;32;20069;-59
2021/03/02 08:16:08;;;;;;;5.87;4.12;;;25.20;10.20;;;;;;4370089;32;20069;-58
2021/03/02 08:18:39;;;;;;;6.22;4.37;;;25.20;10.30;;;;;;4383412;32;20097;-57
2021/03/02 08:21:15;;;;;;;6.07;3.60;;;25.10;10.30;;;;;;4368374;32;20070;-58
2021/03/02 08:23:49;;;;;;;6.25;4.15;;;25.20;10.30;;;;;;4394464;32;20077;-57
2021/03/02 08:26:35;;;;;;;5.72;4.03;;;25.10;10.30;;;;;;4376990;32;20070;-57
2021/03/02 08:29:16;;;;;;;6.75;3.90;;;25.20;10.20;;;;;;4379418;32;20073;-59
2021/03/02 08:31:47;;;;;;;6.45;4.30;;;25.20;10.10;;;;;;4367714;32;20088;-58
2021/03/02 08:34:16;;;;;;;6.03;3.62;;;25.10;10.10;;;;;;4344074;32;20157;-57
2021/03/02 08:36:46;;;;;;;6.07;4.07;;;25.10;10.30;;;;;;4354475;32;20608;-58
2021/03/02 08:39:15;;;;;;;5.95;3.83;;;25.00;10.20;;;;;;4378924;32;20227;-57
2021/03/02 08:41:43;;;;;;;5.55;4.00;;;25.00;10.30;;;;;;4366500;32;20530;-57
2021/03/02 08:44:17;;;;;;;5.85;4.07;;;25.00;10.30;;;;;;4392458;32;20085;-57
2021/03/02 08:46:43;;;;;;;6.18;4.20;;;25.00;10.20;;;;;;4378839;32;20066;-58
2021/03/02 08:49:12;;;;;;;5.80;3.75;;;25.00;10.30;;;;;;4378369;32;20146;-58
2021/03/02 08:51:39;;;;;;;6.93;4.55;;;25.00;10.30;;;;;;4379428;32;20123;-57
2021/03/02 08:54:06;;;;;;;6.50;4.20;;;25.10;10.30;;;;;;4366812;32;20070;-58
2021/03/02 08:56:32;;;;;;;5.70;4.00;;;25.00;10.30;;;;;;4371158;32;20061;-58
2021/03/02 08:59:02;;;;;;;5.95;4.20;;;25.10;10.30;;;;;;4398475;32;20137;-58
2021/03/02 09:01:30;;;;;;;7.90;4.30;;;24.90;10.20;;;;;;4406626;32;20062;-58
2021/03/02 09:04:17;;;;;;;6.25;4.12;;;25.00;10.20;;;;;;4368586;32;20068;-57
2021/03/02 09:06:50;;;;;;;7.40;3.85;;;24.90;10.30;;;;;;4379732;32;20162;-57
2021/03/02 09:09:26;;;;;;;4.68;3.28;;;24.90;10.20;;;;;;4379059;32;20077;-57
2021/03/02 09:11:58;;;;;;;6.20;3.55;;;24.90;10.20;;;;;;4366932;32;20071;-56
2021/03/02 09:14:33;;;;;;;6.85;4.12;;;25.00;10.30;;;;;;4378778;32;20085;-58
2021/03/02 09:17:02;;;;;;;6.87;4.22;;;25.00;10.30;;;;;;4368142;32;20065;-57
2021/03/02 09:19:39;;;;;;;6.55;3.87;;;25.10;10.30;;;;;;4394387;32;20512;-58
2021/03/02 09:22:07;;;;;;;7.37;4.80;;;25.00;10.40;;;;;;4361980;32;20066;-58
2021/03/02 09:24:36;;;;;;;6.03;4.15;;;25.00;10.50;;;;;;4367500;32;20073;-59
2021/03/02 09:27:10;;;;;;;6.95;4.43;;;25.00;10.80;;;;;;4356119;32;20097;-59
2021/03/02 09:29:50;;;;;;;6.15;3.87;;;25.20;11.50;;;;;;4383665;32;20137;-58
2021/03/02 09:32:24;;;;;;;5.90;3.80;;;25.20;11.50;;;;;;4378986;32;20073;-58
2021/03/02 09:35:07;;;;;;;6.10;4.30;;;25.20;11.60;;;;;;4383539;32;20150;-58
2021/03/02 09:37:37;;;;;;;7.85;4.30;;;25.30;11.70;;;;;;4379180;32;20108;-57
2021/03/02 09:40:09;;;;;;;6.12;3.95;;;25.40;11.80;;;;;;4383489;32;20073;-59
2021/03/02 09:42:37;;;;;;;5.97;3.90;;;25.40;12.00;;;;;;4388240;32;20093;-58
2021/03/02 09:45:13;;;;;;;6.68;4.25;;;25.40;12.30;;;;;;4371475;32;20108;-57
2021/03/02 09:47:40;;;;;;;5.75;4.25;;;25.50;12.20;;;;;;4382055;32;20065;-59
2021/03/02 09:50:11;;;;;;;7.68;5.22;;;25.60;12.30;;;;;;4366578;32;20569;-58
2021/03/02 09:52:49;;;;;;;5.30;3.70;;;25.70;12.40;;;;;;4378368;32;20154;-60
2021/03/02 09:55:19;;;;;;;6.22;3.97;;;25.50;12.40;;;;;;4388794;32;20078;-60
2021/03/02 09:58:12;;;;;;;6.78;3.92;;;25.60;12.50;;;;;;4390915;32;20126;-59
2021/03/02 10:00:59;;;;;;;5.68;4.10;;;25.60;12.60;;;;;;4378324;32;20072;-58
2021/03/02 10:03:34;;;;;;;6.05;3.70;;;25.70;12.50;;;;;;4381754;32;20530;-60
2021/03/02 10:06:05;;;;;;;5.90;3.92;;;25.70;12.50;;;;;;4381642;32;20077;-59
2021/03/02 10:08:39;;;;;;;5.87;3.87;;;25.70;12.60;;;;;;4385571;32;20074;-59
2021/03/02 10:11:13;;;;;;;5.45;3.67;;;25.60;12.50;;;;;;4380252;32;20524;-59
2021/03/02 10:13:47;;;;;;;7.12;4.15;;;25.70;12.70;;;;;;4379218;32;20172;-58
2021/03/02 10:16:14;;;;;;;7.47;4.28;;;25.70;12.70;;;;;;4399747;32;20126;-58
2021/03/02 10:19:17;;;;;;;6.18;4.22;;;25.70;12.60;;;;;;4382269;32;20198;-59
2021/03/02 10:21:48;;;;;;;6.00;4.12;;;25.80;12.50;;;;;;4392683;32;20061;-60
2021/03/02 10:24:45;;;;;;;6.55;4.15;;;25.80;12.60;;;;;;4376501;32;20062;-59
2021/03/02 10:27:18;;;;;;;7.80;5.00;;;25.80;12.60;;;;;;4397080;32;20463;-61
2021/03/02 10:29:46;;;;;;;7.05;4.72;;;25.80;12.80;;;;;;4377738;32;20085;-60
2021/03/02 10:32:12;;;;;;;7.00;4.65;;;25.90;12.60;;;;;;4385965;32;20077;-59
2021/03/02 10:34:41;;;;;;;7.03;4.28;;;25.80;12.60;;;;;;4359208;32;20079;-58
2021/03/02 10:37:10;;;;;;;6.10;4.05;;;25.90;12.70;;;;;;4383838;32;20101;-60
2021/03/02 10:39:42;;;;;;;7.18;5.12;;;20.40;17.00;;;;;;4367840;32;20082;-59
2021/03/02 10:42:10;;;;;;;6.05;4.37;;;22.70;16.40;;;;;;4374650;32;20098;-62
2021/03/02 10:44:36;;;;;;;7.80;4.25;;;24.40;14.30;;;;;;4391511;32;20527;-60
2021/03/02 10:47:02;;;;;;;7.12;4.53;;;25.20;13.40;;;;;;4381887;32;20069;-62
2021/03/02 10:49:28;;;;;;;7.00;3.78;;;25.30;13.20;;;;;;4392052;32;20097;-60
2021/03/02 10:51:55;;;;;;;7.05;4.12;;;25.60;13.00;;;;;;4381078;32;20536;-60
2021/03/02 10:54:21;;;;;;;6.60;4.22;;;25.60;12.90;;;;;;4356633;32;20500;-65
2021/03/02 10:56:47;;;;;;;5.57;4.03;;;25.70;13.00;;;;;;4390012;32;20124;-60
2021/03/02 10:59:13;;;;;;;5.97;4.15;;;25.60;13.00;;;;;;4376956;32;20160;-62
2021/03/02 11:01:40;;;;;;;7.82;4.30;;;25.60;13.00;;;;;;4382763;32;20070;-59
2021/03/02 11:04:08;;;;;;;6.93;4.40;;;25.70;13.00;;;;;;4379696;32;20155;-60
2021/03/02 11:06:34;;;;;;;6.62;3.78;;;25.70;13.00;;;;;;4396434;32;20068;-60
2021/03/02 11:09:01;;;;;;;6.75;4.05;;;25.70;13.00;;;;;;4390094;32;20475;-61
2021/03/02 11:11:27;;;;;;;7.45;4.75;;;25.70;13.10;;;;;;4371241;32;20089;-59
2021/03/02 11:13:53;;;;;;;6.53;4.43;;;25.70;13.10;;;;;;4390158;32;20070;-59
2021/03/02 11:16:20;;;;;;;5.95;4.30;;;25.70;13.20;;;;;;4409254;32;20128;-59
2021/03/02 11:18:46;;;;;;;6.70;4.22;;;25.60;13.20;;;;;;4388606;32;20505;-62
2021/03/02 11:21:13;;;;;;;6.15;4.03;;;25.80;13.30;;;;;;4381805;32;20553;-58
2021/03/02 11:23:40;;;;;;;6.22;4.70;;;25.70;14.20;;;;;;4390407;32;20073;-60
2021/03/02 11:26:07;;;;;;;5.20;3.78;;;25.60;13.30;;;;;;4368319;32;20522;-59
2021/03/02 11:28:35;;;;;;;8.32;4.82;;;25.70;13.20;;;;;;4381295;32;20151;-60
2021/03/02 11:31:01;;;;;;;7.05;5.00;;;25.70;13.20;;;;;;4401855;32;20070;-61
2021/03/02 11:33:27;;;;;;;7.50;4.37;;;25.60;13.30;;;;;;4390897;32;20073;-59
2021/03/02 11:35:54;;;;;;;6.18;3.80;;;25.60;13.30;;;;;;4381325;32;20156;-59
2021/03/02 11:38:20;;;;;;;6.18;4.30;;;25.70;13.20;;;;;;4400640;32;20065;-58
2021/03/02 11:40:47;;;;;;;5.82;4.30;;;25.90;13.20;;;;;;4375397;32;20191;-61
2021/03/02 11:43:14;;;;;;;6.45;4.43;;;25.80;13.20;;;;;;4382651;32;20515;-60
2021/03/02 11:45:41;;;;;;;6.47;4.30;;;25.90;13.20;;;;;;4374056;32;20069;-59
2021/03/02 11:48:09;;;;;;;6.95;4.80;;;25.90;13.30;;;;;;4392572;32;20105;-59
2021/03/02 11:50:38;;;;;;;6.45;4.15;;;25.90;13.20;;;;;;4376454;32;20093;-60
2021/03/02 11:53:05;;;;;;;6.40;4.35;;;25.90;13.40;;;;;;4372109;32;20182;-61
2021/03/02 11:55:31;;;;;;;6.45;4.60;;;25.90;13.20;;;;;;4388250;32;20084;-59
2021/03/02 11:58:00;;;;;;;6.60;4.50;;;25.90;13.20;;;;;;4362933;32;20499;-60
2021/03/02 12:00:27;;;;;;;5.55;3.78;;;25.90;13.40;;;;;;4395942;32;20146;-60
2021/03/02 12:02:53;;;;;;;6.93;4.37;;;25.80;13.40;;;;;;4384118;32;20443;-61
2021/03/02 12:05:21;;;;;;;6.75;4.85;;;25.90;13.40;;;;;;4395266;32;20181;-59
2021/03/02 12:07:48;;;;;;;6.20;4.30;;;25.90;13.50;;;;;;4379983;32;20058;-60
2021/03/02 12:10:15;;;;;;;7.62;4.40;;;25.90;13.50;;;;;;4375625;32;20134;-60
2021/03/02 12:12:42;;;;;;;5.47;3.87;;;25.90;13.40;;;;;;4363800;32;20082;-61
2021/03/02 12:15:09;;;;;;;6.25;4.35;;;25.90;13.50;;;;;;4354838;32;20447;-59
2021/03/02 12:17:36;;;;;;;6.25;4.20;;;25.80;13.50;;;;;;4373122;32;20062;-59
2021/03/02 12:20:04;;;;;;;6.07;4.45;;;25.90;13.40;;;;;;4373986;32;20097;-58
2021/03/02 12:22:31;;;;;;;7.10;4.32;;;25.80;13.50;;;;;;4384879;32;20058;-59
2021/03/02 12:24:57;;;;;;;7.05;4.93;;;25.90;13.60;;;;;;4372709;32;20054;-58
2021/03/02 12:27:24;;;;;;;7.65;4.22;;;26.00;13.60;;;;;;4397097;32;20073;-57
2021/03/02 12:29:50;;;;;;;8.00;4.10;;;25.80;13.70;;;;;;4375159;32;20080;-58
2021/03/02 12:32:17;;;;;;;6.10;4.37;;;25.80;13.70;;;;;;4360490;32;20139;-57
2021/03/02 12:34:43;;;;;;;6.65;4.18;;;25.80;13.70;;;;;;4390822;32;20536;-57
2021/03/02 12:37:09;;;;;;;5.65;4.00;;;25.80;13.60;;;;;;4390754;32;20066;-56
2021/03/02 12:39:35;;;;;;;6.45;4.60;;;25.80;13.80;;;;;;4379268;32;20576;-58
2021/03/02 12:42:02;;;;;;;5.80;4.30;;;25.70;13.80;;;;;;4380256;32;20072;-58
2021/03/02 12:44:28;;;;;;;6.78;4.55;;;25.60;13.80;;;;;;4369435;32;20081;-57
2021/03/02 12:46:57;;;;;;;6.15;3.55;;;25.50;13.80;;;;;;4378904;32;20081;-56
2021/03/02 12:49:23;;;;;;;5.75;3.95;;;25.60;13.80;;;;;;4379468;32;20094;-59
2021/03/02 12:51:49;;;;;;;6.05;4.00;;;25.60;13.80;;;;;;4379994;32;20215;-58
2021/03/02 12:54:16;;;;;;;7.37;4.25;;;25.60;13.80;;;;;;4374895;32;20070;-59
2021/03/02 12:56:42;;;;;;;5.78;3.80;;;25.60;13.80;;;;;;4399299;32;20077;-57
2021/03/02 12:59:08;;;;;;;5.60;4.00;;;25.70;13.80;;;;;;4390698;32;20525;-58
2021/03/02 13:01:35;;;;;;;5.35;3.83;;;25.70;13.70;;;;;;4396203;32;20074;-58
2021/03/02 13:04:01;;;;;;;5.62;3.33;;;25.80;13.60;;;;;;4390604;32;20495;-58
2021/03/02 13:06:28;;;;;;;5.03;3.47;;;23.30;15.00;;;;;;4366855;32;20073;-56